Forestville, Canada
Current Conditions -  °F | °C
As of 3:00 PM on Wednesday 26 Nov 2014 (Local Time) from CYYY Reporting Station
Overcast Overcast  
Wind Chill: 23°   Ceiling: 7000
Heat Index: 28°   Visibility: 30mi
Dew Point: 16°   Wind: 5mph
Humidity: 59%   Direction: 310°NW
Pressure: 30.21"   Gusts: NA
Location:  48.73°N, 69.07°W
Report Text: CYYY 262000Z 31004KT 30SM FEW040 OVC070 M02/M09 A3021 RMK SC2AC6 SLP233
Loading
Personal Weather Stations






























Interactive Weather Map New forecast layout! Learn more

10-Day Weather Forecast

Advertisements
Track Severe Weather on mobile